Time;durP1;ratioP1;P1;durP2;ratioP2;P2;SDS_P1;SDS_P2;PMS_P1;PMS_P2;Temp;Humidity;BMP_temperature;BMP_pressure;BME280_temperature;BME280_humidity;BME280_pressure;Samples;Min_cycle;Max_cycle;Signal;HPM_P1;HPM_P2
2022/12/17 13:06:55;;;;;;;101.30;63.08;;;;;;;-1.83;100.00;102569.94;4977077;28;20480;-76
2022/12/17 13:09:36;;;;;;;98.82;61.53;;;;;;;-1.81;100.00;102553.63;5014880;28;20034;-76
2022/12/17 13:12:01;;;;;;;103.03;63.92;;;;;;;-1.76;100.00;102563.97;5011688;28;20084;-76
2022/12/17 13:14:32;;;;;;;101.35;64.25;;;;;;;-1.72;100.00;102552.78;5009828;28;20430;-76
2022/12/17 13:17:07;;;;;;;106.38;66.03;;;;;;;-1.70;100.00;102556.25;5009701;28;20030;-76
2022/12/17 13:19:58;;;;;;;105.45;64.78;;;;;;;-1.69;100.00;102560.53;5011218;28;20101;-75
2022/12/17 13:22:23;;;;;;;98.75;62.97;;;;;;;-1.70;100.00;102561.41;5010253;28;20033;-76
2022/12/17 13:25:22;;;;;;;103.60;64.18;;;;;;;-1.74;100.00;102559.66;5009983;28;20030;-76
2022/12/17 13:27:48;;;;;;;107.50;63.95;;;;;;;-1.80;100.00;102557.06;5006511;28;20131;-76
2022/12/17 13:30:21;;;;;;;99.47;62.03;;;;;;;-1.84;100.00;102558.78;5005379;28;20065;-76
2022/12/17 13:32:52;;;;;;;98.38;61.63;;;;;;;-1.86;100.00;102557.03;4991564;28;20033;-76
2022/12/17 13:35:42;;;;;;;100.28;61.78;;;;;;;-1.81;100.00;102552.75;4991511;28;20383;-76
2022/12/17 13:38:32;;;;;;;96.28;60.55;;;;;;;-1.86;100.00;102555.31;5009995;28;20033;-76
2022/12/17 13:41:09;;;;;;;106.15;62.35;;;;;;;-1.90;100.00;102548.44;5000777;28;20084;-76
2022/12/17 13:43:45;;;;;;;106.28;63.55;;;;;;;-1.95;100.00;102545.84;5004944;28;20034;-75
2022/12/17 13:46:22;;;;;;;68.78;21.30;;;;;;;-1.86;100.00;102542.44;4989183;28;20125;-76
2022/12/17 13:48:58;;;;;;;109.88;63.58;;;;;;;-1.95;100.00;102542.38;4990838;28;20081;-76
2022/12/17 13:51:26;;;;;;;103.97;64.07;;;;;;;-1.99;100.00;102549.25;4989310;28;20446;-76
2022/12/17 13:53:57;;;;;;;106.13;63.47;;;;;;;-1.97;100.00;102549.25;4990476;28;20030;-76
2022/12/17 13:56:35;;;;;;;105.63;63.78;;;;;;;-1.97;100.00;102551.84;5004937;28;20411;-76
2022/12/17 13:59:05;;;;;;;108.57;65.10;;;;;;;-1.97;100.00;102552.69;4993483;28;20033;-76
2022/12/17 14:01:31;;;;;;;109.30;64.53;;;;;;;-1.98;100.00;102552.69;4990300;28;20032;-76
2022/12/17 14:03:59;;;;;;;108.30;64.53;;;;;;;-2.01;100.00;102550.06;4989637;28;20037;-76
2022/12/17 14:06:32;;;;;;;109.30;63.03;;;;;;;-1.97;100.00;102557.00;4989472;28;20030;-76
2022/12/17 14:08:58;;;;;;;104.97;64.05;;;;;;;-2.00;100.00;102554.38;4990511;28;20479;-76
2022/12/17 14:14:39;;;;;;;101.97;60.30;;;;;;;-1.95;100.00;102556.16;4991892;28;20065;-76
2022/12/17 14:17:05;;;;;;;105.32;63.17;;;;;;;-2.05;100.00;102558.66;4988555;28;20038;-77
2022/12/17 14:19:32;;;;;;;103.68;62.35;;;;;;;-2.04;100.00;102561.22;4990404;28;20053;-76
2022/12/17 14:21:59;;;;;;;103.75;60.45;;;;;;;-2.13;100.00;102566.34;4990882;28;20026;-76
2022/12/17 14:24:28;;;;;;;102.50;61.55;;;;;;;-2.16;100.00;102566.31;4990459;28;20026;-76
2022/12/17 14:26:58;;;;;;;103.22;60.30;;;;;;;-2.12;100.00;102573.22;4990691;28;20022;-76
2022/12/17 14:29:27;;;;;;;106.03;60.42;;;;;;;-2.14;100.00;102564.63;4989974;28;20037;-76
2022/12/17 14:32:01;;;;;;;114.18;63.90;;;;;;;-2.16;100.00;102571.47;4989362;28;20104;-76
2022/12/17 14:34:27;;;;;;;110.22;63.17;;;;;;;-2.16;100.00;102568.91;4993267;28;20084;-76
2022/12/17 14:36:55;;;;;;;70.82;20.58;;;;;;;-2.04;100.00;102566.38;4998577;28;20026;-76
2022/12/17 14:39:29;;;;;;;111.55;62.30;;;;;;;-2.15;100.00;102578.38;5009412;28;20387;-76
2022/12/17 14:42:24;;;;;;;75.03;21.73;;;;;;;-2.02;100.00;102569.84;5010244;28;20026;-76
2022/12/17 14:44:59;;;;;;;69.80;21.27;;;;;;;-2.04;100.00;102586.16;5010274;28;20022;-76
2022/12/17 14:47:25;;;;;;;108.90;61.38;;;;;;;-2.29;100.00;102590.31;5009292;28;20030;-76
2022/12/17 14:49:53;;;;;;;113.28;63.25;;;;;;;-2.34;100.00;102586.84;5008994;28;20022;-76
2022/12/17 14:52:31;;;;;;;66.50;21.92;;;;;;;-2.28;100.00;102594.63;5002851;28;20029;-76
2022/12/17 14:54:56;;;;;;;113.55;64.00;;;;;;;-2.41;100.00;102592.78;5029061;28;20025;-77
2022/12/17 14:57:22;;;;;;;119.13;66.22;;;;;;;-2.40;100.00;102595.41;5013862;28;20394;-77
2022/12/17 14:59:48;;;;;;;128.27;66.47;;;;;;;-2.44;100.00;102579.88;5008087;28;20121;-76
2022/12/17 15:02:25;;;;;;;124.63;65.43;;;;;;;-2.43;100.00;102597.06;5007258;28;20026;-77
2022/12/17 15:04:52;;;;;;;117.00;64.25;;;;;;;-2.45;100.00;102596.19;5009598;28;20034;-76
2022/12/17 15:07:23;;;;;;;70.18;21.40;;;;;;;-2.40;100.00;102602.22;4989136;28;20081;-76
2022/12/17 15:09:48;;;;;;;70.38;19.77;;;;;;;-2.43;100.00;102603.06;4989969;28;20026;-76
2022/12/17 15:12:14;;;;;;;118.22;64.95;;;;;;;-2.48;100.00;102594.44;5001987;28;20613;-76
2022/12/17 15:14:39;;;;;;;127.38;69.45;;;;;;;-2.51;100.00;102599.56;5008595;28;20022;-75
2022/12/17 15:17:04;;;;;;;72.53;21.17;;;;;;;-2.43;100.00;102602.22;5011464;28;20141;-76
2022/12/17 15:19:30;;;;;;;142.73;83.18;;;;;;;-2.58;100.00;102608.97;5011541;28;20064;-76
2022/12/17 15:21:55;;;;;;;123.10;66.63;;;;;;;-2.60;100.00;102620.13;5001347;28;20426;-76
2022/12/17 15:24:20;;;;;;;69.53;20.77;;;;;;;-2.49;100.00;102628.78;4992950;28;20124;-77
2022/12/17 15:26:49;;;;;;;78.20;21.02;;;;;;;-2.50;100.00;102631.34;4993664;28;20077;-76
2022/12/17 15:29:14;;;;;;;67.97;20.60;;;;;;;-2.52;100.00;102624.47;4993253;28;20062;-76
2022/12/17 15:31:39;;;;;;;74.82;21.58;;;;;;;-2.53;100.00;102627.91;5010474;28;20152;-74
2022/12/17 15:34:05;;;;;;;79.88;20.77;;;;;;;-2.53;100.00;102627.03;5013268;28;20028;-76
2022/12/17 15:36:31;;;;;;;120.40;64.05;;;;;;;-2.65;100.00;102630.38;5019043;28;20074;-76
2022/12/17 15:38:57;;;;;;;131.07;68.03;;;;;;;-2.69;100.00;102631.22;5022933;28;20033;-76
2022/12/17 15:44:06;;;;;;;129.02;68.00;;;;;;;-2.72;100.00;102632.91;5012422;28;20080;-76
2022/12/17 15:46:32;;;;;;;70.70;22.38;;;;;;;-2.61;100.00;102633.84;4995660;28;20026;-76
2022/12/17 15:48:57;;;;;;;121.60;66.22;;;;;;;-2.71;100.00;102630.34;4995576;28;20025;-76
2022/12/17 15:51:22;;;;;;;106.90;33.10;;;;;;;-2.60;100.00;102640.72;5012295;28;20519;-76
2022/12/17 15:53:49;;;;;;;153.25;86.38;;;;;;;-2.63;100.00;102641.56;5013378;28;20026;-76
2022/12/17 15:56:21;;;;;;;122.93;67.78;;;;;;;-2.67;100.00;102644.09;5005668;28;20018;-76
2022/12/17 15:58:46;;;;;;;79.45;22.83;;;;;;;-2.56;100.00;102645.91;5010350;28;20026;-76
2022/12/17 16:01:12;;;;;;;176.52;101.65;;;;;;;-2.67;100.00;102644.97;5012032;28;20484;-76
2022/12/17 16:03:37;;;;;;;122.30;65.18;;;;;;;-2.71;100.00;102648.38;5011212;28;20387;-76
2022/12/17 16:06:03;;;;;;;114.53;63.25;;;;;;;-2.66;100.00;102651.84;4994047;28;20029;-76
2022/12/17 16:08:28;;;;;;;85.43;24.27;;;;;;;-2.59;100.00;102663.06;4994255;28;20022;-76
2022/12/17 16:10:53;;;;;;;79.10;24.83;;;;;;;-2.62;100.00;102661.31;5011298;28;20036;-76
2022/12/17 16:13:22;;;;;;;65.72;20.33;;;;;;;-2.65;100.00;102655.28;5009365;28;20105;-76
2022/12/17 16:15:57;;;;;;;77.22;22.45;;;;;;;-2.67;100.00;102649.25;5013808;28;20394;-76
2022/12/17 16:18:22;;;;;;;74.75;21.85;;;;;;;-2.65;100.00;102651.00;5012532;28;20022;-76
2022/12/17 16:20:49;;;;;;;80.47;22.83;;;;;;;-2.66;100.00;102646.69;5013796;28;20037;-76
2022/12/17 16:23:14;;;;;;;128.82;67.57;;;;;;;-2.80;100.00;102647.38;5013484;28;20026;-76
2022/12/17 16:25:40;;;;;;;134.60;70.05;;;;;;;-2.78;100.00;102650.88;5012256;28;20029;-76
2022/12/17 16:28:05;;;;;;;134.82;70.38;;;;;;;-2.87;100.00;102644.75;5012277;28;20040;-76
2022/12/17 16:30:30;;;;;;;142.45;73.78;;;;;;;-2.92;100.00;102648.13;5023657;28;20224;-76
2022/12/17 16:32:59;;;;;;;70.60;21.88;;;;;;;-2.82;100.00;102649.94;5010761;28;20029;-76
2022/12/17 16:35:27;;;;;;;74.88;22.98;;;;;;;-2.81;100.00;102651.66;5010859;28;20157;-76
2022/12/17 16:37:52;;;;;;;85.22;23.35;;;;;;;-2.80;100.00;102658.59;5029297;28;20032;-76
2022/12/17 16:40:21;;;;;;;122.75;65.68;;;;;;;-2.94;100.00;102649.81;5013318;28;20029;-76
2022/12/17 16:42:47;;;;;;;133.05;68.32;;;;;;;-2.99;100.00;102654.94;5014334;28;20029;-76
2022/12/17 16:45:12;;;;;;;82.50;23.17;;;;;;;-2.88;100.00;102655.03;5031689;28;20025;-75
2022/12/17 16:47:37;;;;;;;77.38;22.88;;;;;;;-2.85;100.00;102652.50;5025530;28;20298;-76
2022/12/17 16:50:03;;;;;;;75.78;23.73;;;;;;;-2.85;100.00;102658.50;5011692;28;20470;-76
2022/12/17 16:52:28;;;;;;;76.97;20.63;;;;;;;-2.81;100.00;102656.81;5011646;28;20030;-76
2022/12/17 16:54:54;;;;;;;84.80;21.35;;;;;;;-2.81;100.00;102658.53;5011024;28;20010;-76
2022/12/17 16:57:19;;;;;;;77.70;22.73;;;;;;;-2.83;100.00;102663.66;5011381;28;20029;-76
2022/12/17 16:59:45;;;;;;;142.05;71.65;;;;;;;-2.97;100.00;102667.81;4993762;28;20100;-76
2022/12/17 17:02:14;;;;;;;150.02;73.63;;;;;;;-3.01;100.00;102664.34;5011878;28;20034;-76
2022/12/17 17:04:40;;;;;;;147.05;73.80;;;;;;;-3.04;100.00;102658.31;5011226;28;20056;-76
2022/12/17 17:07:05;;;;;;;150.10;74.20;;;;;;;-3.08;100.00;102651.41;5006605;28;20041;-76
2022/12/17 17:09:31;;;;;;;138.18;70.07;;;;;;;-3.13;100.00;102658.22;5010355;28;20558;-76
2022/12/17 17:11:57;;;;;;;138.07;71.55;;;;;;;-3.21;100.00;102661.53;4993197;28;20033;-76
2022/12/17 17:14:24;;;;;;;76.35;22.73;;;;;;;-3.09;100.00;102659.97;4992170;28;20022;-76
2022/12/17 17:16:49;;;;;;;65.85;22.10;;;;;;;-3.11;100.00;102662.53;5010713;28;20029;-76
2022/12/17 17:19:15;;;;;;;77.40;20.35;;;;;;;-3.11;100.00;102670.25;5010638;28;20033;-76
2022/12/17 17:21:47;;;;;;;72.38;22.63;;;;;;;-3.12;100.00;102676.25;5012982;28;20053;-75
2022/12/17 17:24:15;;;;;;;138.00;71.90;;;;;;;-3.23;100.00;102673.50;5029659;28;20025;-76
2022/12/17 17:26:41;;;;;;;145.32;72.25;;;;;;;-3.29;100.00;102670.00;5029854;28;20029;-76
2022/12/17 17:29:07;;;;;;;152.73;73.55;;;;;;;-3.41;100.00;102678.44;5029181;28;20028;-76
2022/12/17 17:31:34;;;;;;;71.20;20.20;;;;;;;-3.30;100.00;102674.28;5011929;28;20046;-76
2022/12/17 17:34:13;;;;;;;151.68;73.43;;;;;;;-3.36;100.00;102676.78;5012352;28;20025;-76
2022/12/17 17:36:39;;;;;;;144.80;70.82;;;;;;;-3.39;100.00;102678.47;5011018;28;20143;-76
2022/12/17 17:39:05;;;;;;;83.55;22.20;;;;;;;-3.30;100.00;102682.00;5001559;28;20116;-76
2022/12/17 17:41:32;;;;;;;74.28;21.58;;;;;;;-3.30;100.00;102684.59;4992088;28;20026;-76
2022/12/17 17:44:10;;;;;;;67.90;20.30;;;;;;;-3.29;100.00;102677.72;5009631;28;20442;-76
2022/12/17 17:46:35;;;;;;;68.38;20.77;;;;;;;-3.30;100.00;102679.44;4993185;28;20040;-76
2022/12/17 17:49:04;;;;;;;65.88;17.88;;;;;;;-3.35;100.00;102682.81;5010291;28;20022;-76
2022/12/17 17:51:33;;;;;;;126.40;64.55;;;;;;;-3.54;100.00;102684.28;5009517;28;20080;-76
2022/12/17 17:54:00;;;;;;;64.28;18.83;;;;;;;-3.44;100.00;102683.56;5011617;28;20021;-76
2022/12/17 17:56:31;;;;;;;115.75;60.60;;;;;;;-3.65;100.00;102688.38;5011254;28;20026;-76
2022/12/17 17:59:03;;;;;;;66.23;20.10;;;;;;;-3.52;100.00;102685.16;5010879;28;20431;-76
2022/12/17 18:01:31;;;;;;;70.03;20.35;;;;;;;-3.52;100.00;102683.44;4992934;28;20331;-76
2022/12/17 18:04:01;;;;;;;65.30;18.05;;;;;;;-3.55;100.00;102691.13;5008861;28;20052;-76
2022/12/17 18:06:27;;;;;;;126.13;64.95;;;;;;;-3.67;100.00;102687.50;5010424;28;20022;-76
2022/12/17 18:08:55;;;;;;;70.97;19.20;;;;;;;-3.59;100.00;102688.50;5010841;28;20286;-76
2022/12/17 18:11:22;;;;;;;73.05;19.05;;;;;;;-3.60;100.00;102686.75;4992539;28;20052;-77
2022/12/17 18:13:53;;;;;;;78.45;20.02;;;;;;;-3.64;100.00;102688.41;5010775;28;20100;-76
2022/12/17 18:16:22;;;;;;;60.35;19.08;;;;;;;-3.65;100.00;102694.41;5010229;28;20022;-76
2022/12/17 18:18:47;;;;;;;79.88;21.55;;;;;;;-3.66;100.00;102694.38;4992297;28;20037;-76
2022/12/17 18:21:17;;;;;;;136.13;64.63;;;;;;;-3.83;100.00;102684.72;5010572;28;20030;-76
2022/12/17 18:23:43;;;;;;;75.47;20.42;;;;;;;-3.73;100.00;102688.28;5010200;28;20030;-76
2022/12/17 18:26:12;;;;;;;141.48;65.28;;;;;;;-3.89;100.00;102694.06;5007780;28;20030;-76
2022/12/17 18:28:39;;;;;;;151.90;67.00;;;;;;;-3.94;100.00;102687.97;5013783;28;20377;-76
2022/12/17 18:31:19;;;;;;;144.52;68.43;;;;;;;-3.94;100.00;102690.53;4992418;28;20506;-76
2022/12/17 18:33:47;;;;;;;138.40;69.05;;;;;;;-4.02;100.00;102690.41;5009488;28;20026;-76
2022/12/17 18:36:16;;;;;;;81.22;21.23;;;;;;;-3.92;100.00;102689.72;5013115;28;20025;-76
2022/12/17 18:38:43;;;;;;;72.53;19.92;;;;;;;-3.90;100.00;102677.75;5028207;28;20033;-76
2022/12/17 18:44:01;;;;;;;71.68;20.85;;;;;;;-3.83;100.00;102689.00;5028183;28;20045;-76
2022/12/17 18:46:27;;;;;;;143.35;71.25;;;;;;;-3.89;100.00;102683.78;4991031;28;20022;-76
2022/12/17 18:48:55;;;;;;;88.05;22.00;;;;;;;-3.81;100.00;102683.03;5009474;28;20297;-76
2022/12/17 18:51:21;;;;;;;150.32;73.35;;;;;;;-3.92;100.00;102679.44;5010331;28;20049;-76
2022/12/17 18:53:47;;;;;;;83.00;23.25;;;;;;;-3.82;100.00;102686.44;5012696;28;20101;-76
2022/12/17 18:56:12;;;;;;;148.90;73.20;;;;;;;-3.93;100.00;102694.84;5012920;28;20109;-76
2022/12/17 18:58:38;;;;;;;83.53;26.45;;;;;;;-3.85;100.00;102695.81;5013104;28;20108;-76
2022/12/17 19:01:05;;;;;;;83.72;23.35;;;;;;;-3.86;100.00;102691.53;5011461;28;20401;-75
2022/12/17 19:03:30;;;;;;;146.45;70.72;;;;;;;-3.98;100.00;102699.91;5012795;28;20022;-75
2022/12/17 19:05:56;;;;;;;74.78;22.15;;;;;;;-3.90;100.00;102698.31;5014857;28;20036;-76
2022/12/17 19:08:21;;;;;;;88.13;22.73;;;;;;;-3.89;100.00;102702.63;5031830;28;20021;-76
2022/12/17 19:10:46;;;;;;;74.93;20.45;;;;;;;-3.91;100.00;102700.88;5032885;28;20087;-76
2022/12/17 19:13:12;;;;;;;130.48;66.18;;;;;;;-4.08;100.00;102697.16;5015174;28;20025;-76
2022/12/17 19:15:37;;;;;;;130.93;65.80;;;;;;;-4.09;100.00;102706.56;5032835;28;20383;-76
2022/12/17 19:18:03;;;;;;;73.53;20.48;;;;;;;-4.04;100.00;102710.06;5033390;28;20021;-76
2022/12/17 19:20:28;;;;;;;58.08;20.10;;;;;;;-4.07;100.00;102710.03;5009712;28;20561;-76
2022/12/17 19:22:53;;;;;;;119.47;61.58;;;;;;;-4.21;100.00;102716.66;4996187;28;20482;-75
2022/12/17 19:25:19;;;;;;;62.10;17.58;;;;;;;-4.13;100.00;102722.78;5012937;28;20466;-76
2022/12/17 19:27:45;;;;;;;61.22;17.67;;;;;;;-4.10;100.00;102726.25;5013011;28;20180;-76
2022/12/17 19:30:10;;;;;;;62.50;17.95;;;;;;;-4.06;100.00;102734.03;5013407;28;20157;-75
2022/12/17 19:32:36;;;;;;;74.18;18.77;;;;;;;-4.04;100.00;102730.63;5011926;28;20055;-76
2022/12/17 19:35:01;;;;;;;119.15;62.53;;;;;;;-4.13;100.00;102725.34;5012123;28;20014;-75
2022/12/17 19:37:26;;;;;;;120.60;62.58;;;;;;;-4.09;100.00;102732.28;5031467;28;20030;-75
2022/12/17 19:39:52;;;;;;;73.38;21.35;;;;;;;-4.01;100.00;102729.81;5015211;28;20025;-76
2022/12/17 19:42:23;;;;;;;56.70;18.55;;;;;;;-3.98;100.00;102730.78;5031992;28;20037;-75
2022/12/17 19:44:50;;;;;;;116.95;63.33;;;;;;;-4.06;100.00;102718.59;5032451;28;20078;-75
2022/12/17 19:47:15;;;;;;;71.60;20.27;;;;;;;-3.94;100.00;102722.25;5032024;28;20017;-75
2022/12/17 19:49:41;;;;;;;61.30;20.27;;;;;;;-3.94;100.00;102717.13;5031079;28;20394;-75
2022/12/17 19:52:06;;;;;;;75.53;23.77;;;;;;;-3.97;100.00;102722.22;5027597;28;20030;-76
2022/12/17 19:54:31;;;;;;;119.60;62.70;;;;;;;-4.15;100.00;102725.34;5011934;28;20390;-75
2022/12/17 19:56:56;;;;;;;79.22;21.77;;;;;;;-4.06;100.00;102719.47;5011428;28;20037;-76
2022/12/17 19:59:22;;;;;;;57.22;19.13;;;;;;;-4.06;100.00;102729.75;4994058;28;20405;-75
2022/12/17 20:01:54;;;;;;;73.18;21.00;;;;;;;-4.06;100.00;102729.75;5012399;28;20030;-76
2022/12/17 20:04:19;;;;;;;118.47;61.80;;;;;;;-4.18;100.00;102726.97;5008777;28;20520;-76
2022/12/17 20:06:45;;;;;;;120.03;64.90;;;;;;;-4.20;100.00;102723.53;5010727;28;20033;-75
2022/12/17 20:09:11;;;;;;;128.20;65.63;;;;;;;-4.23;100.00;102728.63;5015849;28;20088;-76
2022/12/17 20:11:37;;;;;;;127.38;66.38;;;;;;;-4.25;100.00;102740.56;5017756;28;20030;-76
2022/12/17 20:14:20;;;;;;;68.57;19.98;;;;;;;-4.14;100.00;102746.75;5031674;28;20116;-76
2022/12/17 20:16:51;;;;;;;71.38;18.65;;;;;;;-4.13;100.00;102751.91;5012978;28;20030;-76
2022/12/17 20:19:22;;;;;;;63.45;16.92;;;;;;;-4.13;100.00;102751.06;5032017;28;20024;-76
2022/12/17 20:21:49;;;;;;;64.57;19.40;;;;;;;-4.11;100.00;102760.53;5014896;28;20470;-76
2022/12/17 20:24:15;;;;;;;74.22;21.63;;;;;;;-4.10;100.00;102757.13;5031312;28;20104;-76
2022/12/17 20:26:42;;;;;;;115.78;62.35;;;;;;;-4.20;100.00;102759.50;5022636;28;20026;-76
2022/12/17 20:29:08;;;;;;;110.07;60.40;;;;;;;-4.18;100.00;102757.81;5010963;28;20025;-76
2022/12/17 20:31:34;;;;;;;68.85;20.30;;;;;;;-4.11;100.00;102757.09;5011503;28;20469;-76
2022/12/17 20:34:02;;;;;;;68.05;19.45;;;;;;;-4.11;100.00;102750.25;5012255;28;20037;-76
2022/12/17 20:36:27;;;;;;;69.22;19.77;;;;;;;-4.12;100.00;102745.06;5000227;28;20417;-76
2022/12/17 20:38:53;;;;;;;56.40;18.27;;;;;;;-4.13;100.00;102744.22;5031476;28;20025;-76
2022/12/17 20:41:24;;;;;;;69.43;20.63;;;;;;;-4.13;100.00;102748.47;5014357;28;20477;-76
2022/12/17 20:43:50;;;;;;;65.82;18.98;;;;;;;-4.14;100.00;102739.03;5010477;28;20075;-76
2022/12/17 20:46:17;;;;;;;69.13;21.38;;;;;;;-4.15;100.00;102735.63;5011052;28;20437;-76
2022/12/17 20:48:43;;;;;;;71.95;21.67;;;;;;;-4.14;100.00;102731.34;5011915;28;20022;-76
2022/12/17 20:51:15;;;;;;;78.40;23.92;;;;;;;-4.10;100.00;102735.69;5011765;28;20109;-76
2022/12/17 20:53:41;;;;;;;73.20;20.55;;;;;;;-4.09;100.00;102737.41;5009091;28;20028;-76
2022/12/17 20:56:10;;;;;;;61.05;19.52;;;;;;;-4.05;100.00;102738.31;5011184;28;20391;-76
2022/12/17 20:58:36;;;;;;;73.95;22.15;;;;;;;-4.05;100.00;102739.19;5010943;28;20112;-76
2022/12/17 21:01:14;;;;;;;120.13;63.47;;;;;;;-4.19;100.00;102736.41;5011935;28;20030;-76
2022/12/17 21:03:39;;;;;;;125.50;65.55;;;;;;;-4.23;100.00;102733.75;5011747;28;20116;-75
2022/12/17 21:06:11;;;;;;;117.93;63.38;;;;;;;-4.22;100.00;102740.63;5009631;28;20422;-76
2022/12/17 21:08:38;;;;;;;120.72;65.10;;;;;;;-4.23;100.00;102744.03;5010558;28;20034;-76
2022/12/17 21:11:04;;;;;;;72.35;21.88;;;;;;;-4.18;100.00;102737.25;5010374;28;20093;-76
2022/12/17 21:13:29;;;;;;;63.80;20.92;;;;;;;-4.18;100.00;102737.25;5009675;28;20026;-76
2022/12/17 21:15:58;;;;;;;124.88;65.57;;;;;;;-4.23;100.00;102736.31;5010781;28;20475;-76
2022/12/17 21:18:23;;;;;;;72.85;21.42;;;;;;;-4.15;100.00;102737.31;5013992;28;20030;-76
2022/12/17 21:21:04;;;;;;;114.85;62.78;;;;;;;-4.21;100.00;102742.34;5009883;28;20079;-76
2022/12/17 21:23:31;;;;;;;110.05;61.78;;;;;;;-4.24;100.00;102738.03;5009966;28;20025;-76
2022/12/17 21:26:00;;;;;;;61.47;18.92;;;;;;;-4.14;100.00;102744.19;4992552;28;20375;-76
2022/12/17 21:28:26;;;;;;;65.70;20.90;;;;;;;-4.15;100.00;102747.59;5009271;28;20038;-76
2022/12/17 21:30:51;;;;;;;64.45;19.42;;;;;;;-4.17;100.00;102749.28;4993098;28;20402;-76
2022/12/17 21:33:17;;;;;;;111.88;61.20;;;;;;;-4.29;100.00;102754.22;5011334;28;20079;-76
2022/12/17 21:35:42;;;;;;;109.97;60.63;;;;;;;-4.31;100.00;102743.91;5014324;28;20083;-76
2022/12/17 21:38:07;;;;;;;56.90;20.02;;;;;;;-4.23;100.00;102749.19;5030359;28;20097;-76
2022/12/17 21:40:36;;;;;;;106.72;60.60;;;;;;;-4.33;100.00;102742.16;5030511;28;20074;-75
2022/12/17 21:43:01;;;;;;;60.53;20.30;;;;;;;-4.25;100.00;102750.84;5030063;28;20025;-75
2022/12/17 21:45:32;;;;;;;52.08;17.25;;;;;;;-4.24;100.00;102755.16;5030448;28;20112;-75
2022/12/17 21:47:57;;;;;;;58.20;19.75;;;;;;;-4.26;100.00;102754.25;5030830;28;20182;-76
2022/12/17 21:50:22;;;;;;;62.22;19.05;;;;;;;-4.28;100.00;102755.94;5011942;28;20116;-75
2022/12/17 21:52:50;;;;;;;62.97;18.05;;;;;;;-4.29;100.00;102767.06;5018112;28;20067;-75
2022/12/17 21:55:16;;;;;;;55.80;17.33;;;;;;;-4.31;100.00;102761.03;5010520;28;20026;-75
2022/12/17 21:57:42;;;;;;;59.17;17.45;;;;;;;-4.32;100.00;102764.44;5010705;28;20022;-76
2022/12/17 22:00:08;;;;;;;56.00;16.80;;;;;;;-4.33;100.00;102770.41;5009189;28;20097;-75
2022/12/17 22:02:33;;;;;;;99.03;55.50;;;;;;;-4.47;100.00;102765.84;5009754;28;20040;-76
2022/12/17 22:04:59;;;;;;;58.38;18.25;;;;;;;-4.36;100.00;102768.66;5010615;28;20030;-76
2022/12/17 22:07:27;;;;;;;59.58;19.38;;;;;;;-4.34;100.00;102771.25;5009883;28;20049;-75
2022/12/17 22:09:52;;;;;;;55.20;16.55;;;;;;;-4.34;100.00;102771.25;4999758;28;20378;-75
2022/12/17 22:15:05;;;;;;;53.88;16.70;;;;;;;-4.32;100.00;102778.16;5029482;28;20083;-75
2022/12/17 22:17:31;;;;;;;93.15;54.67;;;;;;;-4.44;100.00;102778.75;5010497;28;20492;-75
2022/12/17 22:19:56;;;;;;;95.32;55.08;;;;;;;-4.52;100.00;102777.75;5029299;28;20075;-75
2022/12/17 22:22:21;;;;;;;57.28;20.38;;;;;;;-4.37;100.00;102791.75;5028594;28;20100;-76
2022/12/17 22:24:47;;;;;;;58.17;20.55;;;;;;;-4.37;100.00;102792.63;5028733;28;20071;-76
2022/12/17 22:27:12;;;;;;;56.00;20.00;;;;;;;-4.41;100.00;102798.50;5026685;28;20398;-76
2022/12/17 22:35:06;;;;;;;55.63;17.27;;;;;;;-4.47;100.00;102788.13;5009243;28;20117;-76
2022/12/17 22:37:31;;;;;;;55.03;17.10;;;;;;;-4.48;100.00;102784.69;5021571;28;20116;-76
2022/12/17 22:39:56;;;;;;;55.08;18.25;;;;;;;-4.49;100.00;102787.22;5029485;28;20093;-76
2022/12/17 22:45:06;;;;;;;77.15;48.50;;;;;;;-4.67;100.00;102772.34;5027063;28;20079;-76
2022/12/17 22:47:32;;;;;;;44.95;17.17;;;;;;;-4.57;100.00;102773.38;4992441;28;20026;-76
2022/12/17 22:49:57;;;;;;;41.80;16.52;;;;;;;-4.59;100.00;102778.47;4992521;28;20026;-76
2022/12/17 22:52:22;;;;;;;46.85;19.05;;;;;;;-4.63;100.00;102766.41;5007763;28;20030;-76
2022/12/17 22:54:48;;;;;;;79.60;49.88;;;;;;;-4.79;100.00;102777.22;4992852;28;20025;-76
2022/12/17 22:57:13;;;;;;;79.90;51.33;;;;;;;-4.82;100.00;102775.44;4992515;28;20053;-76
2022/12/17 22:59:39;;;;;;;84.03;52.03;;;;;;;-4.85;100.00;102783.06;5009205;28;20025;-76
2022/12/17 23:02:06;;;;;;;87.53;53.20;;;;;;;-4.87;100.00;102773.63;5013629;28;20441;-76
2022/12/17 23:04:35;;;;;;;47.28;17.10;;;;;;;-4.77;100.00;102773.84;5009951;28;20014;-76
2022/12/17 23:07:01;;;;;;;49.63;16.13;;;;;;;-4.79;100.00;102788.38;5009424;28;20030;-76
2022/12/17 23:09:27;;;;;;;59.63;19.67;;;;;;;-4.83;100.00;102790.81;5009522;28;20488;-77
2022/12/17 23:11:52;;;;;;;86.18;54.38;;;;;;;-5.00;100.00;102776.78;5018571;28;20029;-77
2022/12/17 23:14:21;;;;;;;64.63;23.13;;;;;;;-4.91;100.00;102771.81;5011304;28;20108;-76
2022/12/17 23:16:46;;;;;;;48.65;17.83;;;;;;;-4.93;100.00;102756.41;5029903;28;20049;-77
2022/12/17 23:19:12;;;;;;;61.65;21.13;;;;;;;-4.96;100.00;102752.91;5021198;28;20457;-76
2022/12/17 23:21:37;;;;;;;50.55;18.75;;;;;;;-4.95;100.00;102754.63;5008873;28;20026;-76
2022/12/17 23:24:04;;;;;;;53.83;18.70;;;;;;;-4.96;100.00;102743.50;4992297;28;20216;-76
2022/12/17 23:26:32;;;;;;;55.08;17.58;;;;;;;-4.96;100.00;102752.91;5009887;28;20497;-76
2022/12/17 23:29:00;;;;;;;43.75;16.35;;;;;;;-4.99;100.00;102758.84;5009640;28;20033;-76
2022/12/17 23:31:30;;;;;;;51.80;17.10;;;;;;;-5.03;100.00;102761.31;5008871;28;20128;-77
2022/12/17 23:33:56;;;;;;;50.42;18.15;;;;;;;-5.05;100.00;102758.72;5008789;28;20088;-76
2022/12/17 23:36:23;;;;;;;50.03;16.35;;;;;;;-5.10;100.00;102761.19;4992446;28;20018;-76
2022/12/17 23:38:50;;;;;;;46.90;16.48;;;;;;;-5.14;100.00;102763.66;5012417;28;20104;-76
2022/12/17 23:41:21;;;;;;;78.20;50.80;;;;;;;-5.26;100.00;102766.81;5011817;28;20025;-76
2022/12/17 23:43:47;;;;;;;45.80;17.08;;;;;;;-5.20;100.00;102759.28;5012641;28;20029;-76
2022/12/17 23:46:13;;;;;;;80.07;50.58;;;;;;;-5.38;100.00;102771.69;5012166;28;20053;-76
2022/12/17 23:48:41;;;;;;;54.60;19.30;;;;;;;-5.28;100.00;102763.34;5011287;28;20030;-76
2022/12/17 23:51:08;;;;;;;84.25;52.30;;;;;;;-5.41;100.00;102784.44;5011585;28;20025;-76
2022/12/17 23:53:34;;;;;;;85.22;53.53;;;;;;;-5.41;100.00;102784.44;5016005;28;20021;-76
2022/12/17 23:56:13;;;;;;;47.03;17.00;;;;;;;-5.32;100.00;102782.06;5011492;28;20098;-76
2022/12/17 23:58:40;;;;;;;49.33;18.05;;;;;;;-5.34;100.00;102781.16;5011911;28;20037;-76
